Ana Sayfa
METAR-TAF:

METAR-TAF

Havaalanları :

Bahreyn, Bahreyn

Enlem: 26-16N, Boylam: 050-39E, yükseklik: 2 m

Güncel hava durumu gözlemi

Rapor saat 22:00 UTC de 8 dakika önce yapıldı.
Rüzgar batıdan 11 kt
Sıcaklık 15°C
Nem 77%
Basınç 1020 hPa
Görüş mesafesi: 6000 m
4000 ft yükseklikte az bulutlu

METAR: OBBI 212200Z 28011KT 6000 FEW040 15/11 Q1020 TEMPO 5000

Saat: 01:08 (22:08 UTC)

Tahmin

Rapor saat 17:00 UTC de 5 saat ve 8 dakika önce yapıldı.
Ayın 21'si saat 18 UTC'den ayın 23'si saat 00 UTC'ye kadar geçerli Tahmin
Rüzgar kuzeybatıdan 15 kt
Görüş mesafesi: 7000 m
3000 ft yükseklikte parçalı bulutlu
Dönüşüyor
ayın 22'si saat 16 UTC'den ayın 22'si saat 18 UTC'ye kadar
Rüzgar değişken yönden 5 kt
Geçici
ayın 22'si saat 18 UTC'den ayın 23'si saat 00 UTC'ye kadar
Görüş mesafesi: 4000 m
Pus

TAF: OBBI 211700Z 2118/2300 32015KT 7000 SCT030 BECMG 2216/2218 VRB05KT TEMPO 2218/2300 4000 BR

4.000'den fazla havaalanı için hava durumu gözlemleri ve tahminleri (METAR ve TAF raporları).

Kullanılabilir istasyonlar harita üzerinde sarı ve kırmızı noktalarla gösterilir.

İstasyonun adını görmek için fareyi noktanın üzerinde gezdirin.

Sonrasında hava gözlem ve tahminlerini görmek için tıklayın.

Haritayı değiştirmek için: yaklaştırmak için siyah artı işaretli yeşil düğmeye ve uzaklaştırmak için de eksi işaretli düğmeye hızla tıklayın; bitişik haritalar için yeşil okları kullanın.


METAR-TAF: